createdAt,value
2022-11-04T00:01:11.185Z,26.75
2022-11-04T00:03:12.811Z,28.10
2022-11-04T00:05:14.425Z,24.92
2022-11-04T00:07:34.313Z,21.08
2022-11-04T00:09:35.925Z,28.73
2022-11-04T00:11:56.188Z,23.33
2022-11-04T00:13:58.451Z,21.13
2022-11-04T00:16:21.615Z,23.70
2022-11-04T00:18:24.705Z,23.23
2022-11-04T00:20:44.641Z,24.77
2022-11-04T00:23:07.642Z,23.90
2022-11-04T00:25:28.533Z,26.52
2022-11-04T00:27:48.741Z,24.10
2022-11-04T00:29:50.292Z,23.85
2022-11-04T00:32:10.289Z,26.08
2022-11-04T00:34:11.970Z,21.35
2022-11-04T00:36:13.573Z,23.20
2022-11-04T00:38:15.399Z,20.23
2022-11-04T00:40:17.453Z,21.90
2022-11-04T00:42:19.044Z,25.15
2022-11-04T00:44:20.768Z,23.77
2022-11-04T00:46:22.451Z,25.38
2022-11-04T00:48:24.066Z,25.10
2022-11-04T00:50:25.638Z,21.92
2022-11-04T00:52:27.233Z,23.75
2022-11-04T00:54:28.807Z,22.65
2022-11-04T00:56:30.649Z,18.20
2022-11-04T00:58:32.234Z,23.00
2022-11-04T01:00:33.827Z,23.10
2022-11-04T01:02:35.559Z,23.77
2022-11-04T01:04:37.262Z,20.83
2022-11-04T01:06:38.854Z,22.10
2022-11-04T01:08:40.874Z,20.10
2022-11-04T01:10:44.774Z,24.45
2022-11-04T01:12:47.567Z,19.65
2022-11-04T01:14:49.840Z,22.33
2022-11-04T01:16:51.501Z,26.45
2022-11-04T01:18:53.510Z,25.65
2022-11-04T01:20:55.188Z,21.63
2022-11-04T01:22:56.775Z,21.42
2022-11-04T01:24:58.440Z,26.13
2022-11-04T01:27:00.155Z,19.95
2022-11-04T01:29:01.899Z,22.67
2022-11-04T01:31:11.960Z,18.05
2022-11-04T01:33:13.566Z,21.50
2022-11-04T01:35:15.184Z,25.13
2022-11-04T01:37:16.875Z,19.98
2022-11-04T01:39:18.467Z,21.48
2022-11-04T01:41:32.117Z,21.60
2022-11-04T01:43:44.316Z,19.38
2022-11-04T01:45:49.791Z,30.33
2022-11-04T01:48:00.888Z,25.45
2022-11-04T01:50:27.008Z,25.85
2022-11-04T01:52:33.933Z,21.60
2022-11-04T01:54:35.896Z,23.05
2022-11-04T01:56:38.559Z,23.38
2022-11-04T01:58:52.243Z,18.20
2022-11-04T02:00:54.059Z,23.05
2022-11-04T02:03:20.521Z,21.05
2022-11-04T02:05:22.777Z,20.75
2022-11-04T02:07:24.527Z,30.90
2022-11-04T02:09:28.419Z,20.65
2022-11-04T02:11:48.802Z,22.92
2022-11-04T02:13:50.413Z,20.77
2022-11-04T02:15:58.650Z,22.65
2022-11-04T02:18:05.874Z,25.48
2022-11-04T02:20:28.649Z,22.33
2022-11-04T02:22:59.615Z,24.60
2022-11-04T02:25:03.980Z,28.40
2022-11-04T02:27:14.082Z,23.90
2022-11-04T02:29:35.912Z,24.20
2022-11-04T02:32:11.701Z,23.42
2022-11-04T02:34:22.187Z,25.27
2022-11-04T02:36:34.544Z,26.67
2022-11-04T02:38:43.464Z,33.25
2022-11-04T02:41:22.400Z,24.23
2022-11-04T02:43:34.092Z,24.80
2022-11-04T02:45:45.346Z,21.80
2022-11-04T02:47:52.330Z,24.50
2022-11-04T02:50:13.091Z,21.88
2022-11-04T02:52:18.509Z,19.73
2022-11-04T02:54:44.325Z,20.80
2022-11-04T02:56:50.058Z,24.55
2022-11-04T02:59:01.741Z,23.85
2022-11-04T03:01:04.547Z,22.27
2022-11-04T03:03:10.856Z,23.27
2022-11-04T03:05:19.256Z,22.80
2022-11-04T03:07:25.872Z,19.80
2022-11-04T03:09:29.553Z,21.00
2022-11-04T03:11:31.654Z,25.15
2022-11-04T03:13:46.200Z,24.02
2022-11-04T03:16:10.881Z,23.73
2022-11-04T03:20:21.075Z,19.65
2022-11-04T03:22:24.770Z,20.55
2022-11-04T03:24:26.835Z,22.83
2022-11-04T03:26:32.481Z,24.80
2022-11-04T03:29:17.009Z,23.00
2022-11-04T03:31:26.172Z,23.60
2022-11-04T03:33:38.412Z,19.92
2022-11-04T03:35:40.081Z,23.35
2022-11-04T03:37:42.761Z,21.10
2022-11-04T03:39:44.478Z,24.35
2022-11-04T03:42:02.192Z,24.10
2022-11-04T03:44:04.167Z,30.45
2022-11-04T03:46:05.850Z,23.52
2022-11-04T03:48:07.684Z,24.45
2022-11-04T03:50:20.937Z,26.52
2022-11-04T03:52:22.561Z,21.57
2022-11-04T03:54:24.147Z,24.73
2022-11-04T03:57:00.620Z,23.13
2022-11-04T03:59:05.324Z,22.88
2022-11-04T04:01:12.878Z,22.52
2022-11-04T04:03:20.716Z,23.30
2022-11-04T04:05:30.047Z,21.08
2022-11-04T04:07:38.941Z,25.33
2022-11-04T04:10:34.395Z,19.15
2022-11-04T04:12:38.867Z,23.58
2022-11-04T04:14:43.641Z,24.55
2022-11-04T04:16:47.648Z,22.23
2022-11-04T04:18:55.790Z,26.35
2022-11-04T04:21:03.128Z,25.52
2022-11-04T04:23:30.004Z,22.50
2022-11-04T04:25:50.787Z,23.88
2022-11-04T04:27:53.738Z,23.63
2022-11-04T04:29:55.368Z,25.83
2022-11-04T04:31:58.756Z,23.13
2022-11-04T04:34:00.391Z,25.55
2022-11-04T04:36:02.286Z,33.78
2022-11-04T04:38:25.219Z,31.48
2022-11-04T04:40:47.425Z,29.30
2022-11-04T04:43:11.438Z,23.42
2022-11-04T04:47:20.213Z,27.08
2022-11-04T04:49:21.885Z,20.90
2022-11-04T04:51:23.967Z,18.90
2022-11-04T04:53:25.558Z,26.67
2022-11-04T04:55:27.147Z,20.83
2022-11-04T04:57:28.758Z,23.30
2022-11-04T04:59:30.303Z,32.33
2022-11-04T05:01:32.360Z,46.13
2022-11-04T05:03:34.120Z,55.92
2022-11-04T05:05:35.699Z,54.50
2022-11-04T05:07:37.413Z,57.13
2022-11-04T05:09:39.043Z,52.13
2022-11-04T05:11:40.668Z,56.63
2022-11-04T05:13:42.292Z,42.33
2022-11-04T05:15:43.879Z,46.85
2022-11-04T05:17:45.495Z,47.25
2022-11-04T05:19:47.115Z,40.90
2022-11-04T05:21:48.688Z,41.30
2022-11-04T05:23:50.283Z,35.28
2022-11-04T05:25:51.948Z,40.38
2022-11-04T05:27:53.542Z,40.08
2022-11-04T05:29:55.096Z,35.13
2022-11-04T05:31:57.120Z,34.15
2022-11-04T05:33:59.877Z,36.83
2022-11-04T05:36:08.800Z,35.88
2022-11-04T05:38:10.850Z,34.05
2022-11-04T05:40:12.628Z,37.03
2022-11-04T05:42:14.244Z,31.45
2022-11-04T05:44:15.977Z,33.50
2022-11-04T05:46:17.837Z,27.52
2022-11-04T05:48:19.426Z,26.95
2022-11-04T05:50:21.005Z,27.70
2022-11-04T05:52:22.692Z,30.00
2022-11-04T05:54:24.340Z,30.48
2022-11-04T05:56:25.920Z,28.38
2022-11-04T05:58:27.596Z,30.73
2022-11-04T06:00:29.563Z,29.90
2022-11-04T06:02:31.246Z,28.45
2022-11-04T06:04:33.444Z,31.52
2022-11-04T06:06:36.436Z,31.45
2022-11-04T06:08:42.482Z,31.98
2022-11-04T06:10:46.511Z,31.80
2022-11-04T06:12:48.207Z,26.95
2022-11-04T06:14:49.795Z,25.67
2022-11-04T06:16:51.564Z,28.70
2022-11-04T06:18:53.898Z,28.60
2022-11-04T06:21:09.613Z,34.67
2022-11-04T06:23:11.387Z,31.60
2022-11-04T06:25:15.726Z,36.40
2022-11-04T06:27:17.560Z,29.10
2022-11-04T06:29:19.208Z,31.25
2022-11-04T06:31:21.080Z,31.05
2022-11-04T06:33:22.651Z,28.08
2022-11-04T06:35:24.387Z,31.38
2022-11-04T06:37:25.975Z,32.53
2022-11-04T06:39:27.540Z,31.30
2022-11-04T06:41:29.145Z,32.85
2022-11-04T06:43:30.736Z,34.58
2022-11-04T06:45:32.356Z,36.35
2022-11-04T06:47:33.948Z,34.45
2022-11-04T06:49:35.547Z,34.75
2022-11-04T06:51:37.423Z,32.10
2022-11-04T06:53:38.990Z,35.95
2022-11-04T06:55:40.703Z,32.33
2022-11-04T06:57:42.318Z,39.78
2022-11-04T06:59:44.257Z,38.22
2022-11-04T07:01:46.756Z,37.63
2022-11-04T07:03:54.937Z,35.00
2022-11-04T07:05:56.496Z,31.88
2022-11-04T07:07:58.132Z,35.67
2022-11-04T07:09:59.720Z,33.65
2022-11-04T07:12:01.438Z,31.90
2022-11-04T07:14:03.051Z,32.20
2022-11-04T07:16:06.344Z,34.58
2022-11-04T07:18:08.243Z,35.25
2022-11-04T07:20:13.218Z,30.50
2022-11-04T07:22:14.852Z,53.25
2022-11-04T07:24:16.487Z,34.95
2022-11-04T07:26:18.071Z,38.05
2022-11-04T07:28:20.295Z,34.95
2022-11-04T07:30:21.896Z,37.58
2022-11-04T07:32:23.549Z,44.83
2022-11-04T07:34:25.172Z,40.45
2022-11-04T07:36:26.759Z,34.28
2022-11-04T07:38:28.351Z,36.25
2022-11-04T07:40:30.818Z,31.42
2022-11-04T07:42:32.463Z,40.17
2022-11-04T07:44:34.429Z,32.10
2022-11-04T07:46:36.136Z,30.67
2022-11-04T07:48:37.864Z,33.22
2022-11-04T07:50:40.680Z,34.97
2022-11-04T07:52:42.461Z,35.27
2022-11-04T07:54:44.059Z,43.13
2022-11-04T07:56:45.648Z,38.10
2022-11-04T07:58:47.412Z,37.78
2022-11-04T08:00:49.412Z,42.55
2022-11-04T08:02:51.098Z,35.30
2022-11-04T08:04:52.809Z,34.60
2022-11-04T08:06:54.548Z,36.03
2022-11-04T08:08:58.415Z,41.95
2022-11-04T08:11:03.152Z,43.33
2022-11-04T08:13:04.785Z,37.22
2022-11-04T08:15:07.060Z,31.30
2022-11-04T08:17:08.734Z,32.50
2022-11-04T08:19:10.377Z,39.47
2022-11-04T08:21:12.876Z,38.58
2022-11-04T08:23:14.481Z,35.05
2022-11-04T08:25:17.002Z,33.10
2022-11-04T08:27:18.729Z,36.72
2022-11-04T08:29:20.404Z,38.22
2022-11-04T08:31:27.619Z,35.17
2022-11-04T08:33:31.444Z,38.78
2022-11-04T08:37:42.671Z,36.67
2022-11-04T08:39:44.423Z,39.33
2022-11-04T08:41:46.068Z,36.50
2022-11-04T08:43:48.224Z,36.95
2022-11-04T08:45:49.860Z,38.00
2022-11-04T08:47:51.441Z,35.85
2022-11-04T08:49:53.024Z,37.42
2022-11-04T08:52:00.677Z,35.95
2022-11-04T08:54:02.237Z,35.40
2022-11-04T08:56:24.896Z,38.00
2022-11-04T08:58:26.542Z,33.00
2022-11-04T09:00:33.068Z,37.60
2022-11-04T09:02:34.764Z,33.83
2022-11-04T09:04:36.461Z,36.33
2022-11-04T09:06:40.987Z,35.95
2022-11-04T09:08:43.562Z,31.35
2022-11-04T09:10:46.951Z,39.25
2022-11-04T09:12:48.567Z,36.78
2022-11-04T09:14:50.285Z,30.95
2022-11-04T09:16:51.907Z,31.38
2022-11-04T09:18:53.470Z,35.25
2022-11-04T09:20:55.092Z,33.10
2022-11-04T09:22:57.116Z,32.83
2022-11-04T09:24:58.999Z,38.05
2022-11-04T09:27:00.579Z,33.65
2022-11-04T09:29:02.970Z,35.10
2022-11-04T09:31:06.743Z,36.47
2022-11-04T09:35:10.258Z,37.05
2022-11-04T09:37:11.824Z,30.75
2022-11-04T09:39:13.402Z,33.00
2022-11-04T09:41:23.837Z,28.63
2022-11-04T09:43:50.423Z,31.17
2022-11-04T09:45:52.132Z,31.38
2022-11-04T09:47:59.069Z,29.25
2022-11-04T09:50:01.677Z,32.47
2022-11-04T09:52:08.752Z,32.40
2022-11-04T09:54:29.260Z,32.20
2022-11-04T09:56:42.582Z,31.23
2022-11-04T09:58:44.343Z,30.35
2022-11-04T10:00:54.645Z,33.90
2022-11-04T10:03:34.347Z,32.30
2022-11-04T10:05:38.894Z,36.08
2022-11-04T10:07:47.550Z,39.78
2022-11-04T10:09:55.240Z,34.83
2022-11-04T10:12:22.033Z,32.40
2022-11-04T10:14:42.874Z,47.88
2022-11-04T10:17:22.402Z,34.83
2022-11-04T10:19:52.165Z,35.63
2022-11-04T10:22:04.611Z,34.03
2022-11-04T10:24:49.678Z,33.38
2022-11-04T10:27:05.060Z,32.90
2022-11-04T10:29:13.782Z,29.58
2022-11-04T10:31:17.456Z,36.05
2022-11-04T10:36:06.164Z,32.30
2022-11-04T10:38:21.557Z,26.60
2022-11-04T10:40:37.187Z,32.50
2022-11-04T10:42:38.843Z,31.10
2022-11-04T10:44:40.620Z,32.83
2022-11-04T10:47:07.060Z,31.60
2022-11-04T10:49:37.911Z,31.50
2022-11-04T10:51:39.528Z,28.45
2022-11-04T10:53:41.410Z,30.52
2022-11-04T10:55:50.320Z,31.15
2022-11-04T10:57:56.286Z,33.25
2022-11-04T11:00:00.347Z,30.52
2022-11-04T11:02:02.983Z,41.03
2022-11-04T11:04:07.466Z,27.60
2022-11-04T11:06:25.543Z,25.20
2022-11-04T11:08:33.110Z,126.38
2022-11-04T11:10:34.943Z,25.75
2022-11-04T11:12:51.746Z,34.60
2022-11-04T11:14:53.860Z,24.02
2022-11-04T11:17:15.397Z,24.85
2022-11-04T11:19:22.387Z,35.20
2022-11-04T11:21:24.570Z,22.90
2022-11-04T11:23:42.552Z,23.20
2022-11-04T11:25:49.867Z,23.95
2022-11-04T11:27:55.637Z,24.20
2022-11-04T11:29:57.200Z,25.02
2022-11-04T11:32:00.744Z,32.00
2022-11-04T11:34:07.620Z,27.88
2022-11-04T11:36:18.275Z,24.33
2022-11-04T11:38:28.692Z,24.80
2022-11-04T11:40:32.632Z,20.85
2022-11-04T11:42:34.735Z,27.27
2022-11-04T11:44:44.578Z,22.90
2022-11-04T11:46:54.740Z,23.15
2022-11-04T11:49:01.350Z,25.98
2022-11-04T11:51:03.457Z,23.88
2022-11-04T11:53:19.734Z,32.45
2022-11-04T11:55:36.942Z,25.08
2022-11-04T12:02:56.136Z,28.17
2022-11-04T12:10:07.058Z,20.95
2022-11-04T12:12:23.416Z,19.85
2022-11-04T12:14:48.524Z,26.38
2022-11-04T12:17:20.921Z,25.17
2022-11-04T12:19:41.313Z,22.58
2022-11-04T12:22:05.567Z,19.83
2022-11-04T12:24:22.566Z,21.50
2022-11-04T12:26:37.932Z,22.23
2022-11-04T12:29:18.415Z,19.23
2022-11-04T12:31:30.702Z,20.50
2022-11-04T12:33:49.860Z,22.77
2022-11-04T12:36:02.307Z,25.10
2022-11-04T12:38:25.205Z,22.38
2022-11-04T12:40:39.516Z,23.45
2022-11-04T12:43:04.748Z,20.48
2022-11-04T12:45:38.635Z,20.73
2022-11-04T12:47:43.748Z,22.37
2022-11-04T12:50:09.570Z,22.27
2022-11-04T12:52:32.191Z,21.23
2022-11-04T12:54:54.769Z,21.92
2022-11-04T12:57:25.924Z,17.70
2022-11-04T12:59:52.553Z,22.40
2022-11-04T13:02:15.592Z,20.38
2022-11-04T13:04:17.805Z,22.25
2022-11-04T13:06:38.822Z,25.77
2022-11-04T13:08:44.867Z,19.50
2022-11-04T13:10:48.633Z,17.38
2022-11-04T13:12:52.387Z,23.17
2022-11-04T13:15:01.276Z,20.60
2022-11-04T13:17:08.532Z,19.88
2022-11-04T13:19:32.164Z,24.17
2022-11-04T13:21:36.705Z,25.83
2022-11-04T13:23:42.325Z,28.70
2022-11-04T13:25:45.840Z,21.10
2022-11-04T13:27:48.331Z,24.13
2022-11-04T13:29:51.243Z,27.77
2022-11-04T13:32:04.612Z,19.73
2022-11-04T13:34:24.727Z,20.55
2022-11-04T13:36:47.498Z,19.90
2022-11-04T13:38:53.561Z,31.63
2022-11-04T13:41:21.720Z,27.75
2022-11-04T13:43:40.433Z,40.47
2022-11-04T13:45:48.243Z,30.15
2022-11-04T13:47:55.729Z,28.35
2022-11-04T13:49:57.402Z,22.70
2022-11-04T13:52:07.982Z,20.42
2022-11-04T13:54:24.382Z,23.25
2022-11-04T13:56:37.952Z,25.30
2022-11-04T13:58:44.417Z,23.65
2022-11-04T14:01:36.520Z,24.27
2022-11-04T14:03:50.941Z,25.48
2022-11-04T14:06:05.380Z,23.25
2022-11-04T14:08:13.505Z,25.38
2022-11-04T14:10:42.792Z,27.40
2022-11-04T14:12:45.051Z,31.35
2022-11-04T14:14:48.947Z,31.65
2022-11-04T14:16:51.132Z,29.10
2022-11-04T14:18:54.078Z,32.75
2022-11-04T14:21:15.340Z,23.70
2022-11-04T14:23:24.505Z,25.95
2022-11-04T14:25:28.954Z,25.25
2022-11-04T14:27:36.537Z,22.27
2022-11-04T14:29:41.037Z,24.95
2022-11-04T14:31:49.714Z,29.48
2022-11-04T14:33:55.539Z,25.73
2022-11-04T14:36:22.125Z,23.77
2022-11-04T14:38:33.309Z,22.00
2022-11-04T14:40:50.777Z,24.58
2022-11-04T14:42:56.934Z,28.30
2022-11-04T14:44:58.852Z,27.35
2022-11-04T14:47:41.005Z,30.15
2022-11-04T14:49:46.383Z,25.02
2022-11-04T14:51:47.996Z,24.63
2022-11-04T14:53:49.674Z,25.65
2022-11-04T14:56:04.830Z,22.60
2022-11-04T14:58:28.130Z,27.55
2022-11-04T15:00:37.357Z,25.70
2022-11-04T15:02:39.094Z,26.08
2022-11-04T15:04:47.196Z,22.27
2022-11-04T15:07:02.449Z,23.95
2022-11-04T15:09:04.309Z,24.25
2022-11-04T15:11:16.893Z,21.60
2022-11-04T15:13:20.304Z,24.52
2022-11-04T15:15:44.466Z,24.85
2022-11-04T15:17:46.166Z,26.55
2022-11-04T15:19:55.255Z,23.25
2022-11-04T15:21:58.513Z,24.02
2022-11-04T15:24:01.620Z,24.20
2022-11-04T15:26:03.742Z,31.00
2022-11-04T15:28:16.247Z,24.40
2022-11-04T15:30:26.761Z,22.75
2022-11-04T15:32:28.613Z,31.88
2022-11-04T15:34:30.929Z,26.77
2022-11-04T15:36:36.793Z,43.53
2022-11-04T15:38:39.649Z,27.90
2022-11-04T15:40:42.913Z,27.13
2022-11-04T15:42:45.519Z,28.70
2022-11-04T15:44:50.760Z,27.17
2022-11-04T15:47:01.412Z,26.63
2022-11-04T15:49:07.435Z,26.70
2022-11-04T15:51:19.609Z,23.45
2022-11-04T15:53:21.165Z,27.02
2022-11-04T15:55:24.717Z,27.20
2022-11-04T15:57:32.759Z,29.42
2022-11-04T15:59:35.963Z,25.60
2022-11-04T16:01:45.050Z,33.20
2022-11-04T16:03:51.145Z,26.17
2022-11-04T16:06:05.371Z,31.10
2022-11-04T16:08:18.987Z,22.80
2022-11-04T16:10:30.700Z,28.88
2022-11-04T16:12:36.540Z,25.73
2022-11-04T16:14:38.180Z,24.17
2022-11-04T16:16:39.886Z,28.50
2022-11-04T16:18:58.239Z,26.13
2022-11-04T16:21:04.259Z,27.88
2022-11-04T16:23:06.445Z,31.25
2022-11-04T16:25:11.227Z,24.10
2022-11-04T16:27:16.440Z,31.40
2022-11-04T16:29:29.913Z,30.48
2022-11-04T16:31:35.870Z,26.83
2022-11-04T16:33:37.499Z,23.88
2022-11-04T16:35:42.833Z,24.20
2022-11-04T16:37:45.037Z,30.63
2022-11-04T16:39:47.031Z,28.45
2022-11-04T16:41:48.696Z,27.98
2022-11-04T16:43:50.679Z,27.65
2022-11-04T16:45:54.078Z,36.40
2022-11-04T16:50:01.855Z,27.35
2022-11-04T16:52:05.748Z,24.63
2022-11-04T16:54:07.546Z,34.45
2022-11-04T16:56:09.328Z,23.02
2022-11-04T16:58:16.400Z,27.52
2022-11-04T17:00:21.671Z,29.33
2022-11-04T17:02:31.203Z,22.58
2022-11-04T17:04:33.025Z,27.00
2022-11-04T17:06:35.426Z,30.30
2022-11-04T17:08:38.212Z,24.40
2022-11-04T17:10:39.909Z,28.27
2022-11-04T17:12:41.600Z,32.22
2022-11-04T17:14:43.209Z,31.75
2022-11-04T17:16:44.797Z,28.40
2022-11-04T17:18:46.643Z,26.92
2022-11-04T17:20:51.224Z,30.88
2022-11-04T17:22:53.088Z,30.05
2022-11-04T17:24:54.820Z,28.08
2022-11-04T17:26:56.534Z,23.80
2022-11-04T17:28:59.397Z,31.42
2022-11-04T17:31:02.173Z,37.57
2022-11-04T17:33:07.618Z,31.10
2022-11-04T17:35:10.435Z,27.42
2022-11-04T17:37:15.184Z,34.33
2022-11-04T17:39:16.753Z,38.13
2022-11-04T17:41:36.903Z,34.13
2022-11-04T17:43:57.183Z,29.48
2022-11-04T17:46:18.728Z,30.67
2022-11-04T17:48:20.287Z,29.35
2022-11-04T17:50:22.240Z,31.50
2022-11-04T17:52:23.881Z,30.67
2022-11-04T17:54:28.106Z,31.60
2022-11-04T17:56:30.824Z,33.50
2022-11-04T17:58:32.491Z,27.67
2022-11-04T18:00:34.480Z,25.85
2022-11-04T18:02:36.551Z,32.38
2022-11-04T18:04:38.383Z,28.63
2022-11-04T18:06:40.087Z,28.17
2022-11-04T18:08:41.766Z,28.92
2022-11-04T18:10:43.409Z,28.40
2022-11-04T18:12:45.419Z,23.55
2022-11-04T18:14:46.959Z,32.83
2022-11-04T18:16:50.193Z,31.65
2022-11-04T18:18:51.929Z,30.25
2022-11-04T18:21:02.335Z,39.70
2022-11-04T18:23:04.014Z,30.40
2022-11-04T18:25:06.840Z,28.25
2022-11-04T18:27:08.775Z,27.93
2022-11-04T18:29:10.827Z,33.53
2022-11-04T18:31:24.596Z,34.70
2022-11-04T18:33:26.262Z,36.35
2022-11-04T18:35:27.861Z,26.35
2022-11-04T18:37:29.610Z,39.15
2022-11-04T18:39:31.299Z,51.63
2022-11-04T18:41:33.597Z,43.22
2022-11-04T18:43:35.494Z,41.53
2022-11-04T18:45:37.113Z,46.15
2022-11-04T18:47:38.752Z,39.05
2022-11-04T18:49:40.336Z,33.97
2022-11-04T18:51:43.280Z,39.55
2022-11-04T18:53:45.575Z,39.00
2022-11-04T18:55:47.242Z,31.90
2022-11-04T18:57:48.818Z,25.80
2022-11-04T18:59:50.710Z,31.65
2022-11-04T19:01:53.385Z,32.00
2022-11-04T19:03:55.288Z,30.23
2022-11-04T19:05:56.856Z,30.95
2022-11-04T19:07:58.513Z,38.17
2022-11-04T19:10:00.147Z,41.35
2022-11-04T19:12:20.396Z,49.75
2022-11-04T19:14:21.949Z,39.28
2022-11-04T19:16:24.627Z,42.28
2022-11-04T19:18:26.212Z,39.60
2022-11-04T19:20:28.423Z,35.70
2022-11-04T19:22:30.100Z,38.38
2022-11-04T19:24:31.679Z,48.67
2022-11-04T19:26:35.684Z,39.92
2022-11-04T19:28:48.081Z,40.03
2022-11-04T19:31:02.826Z,33.47
2022-11-04T19:33:04.463Z,31.55
2022-11-04T19:35:06.333Z,32.95
2022-11-04T19:37:07.930Z,36.03
2022-11-04T19:39:09.721Z,36.50
2022-11-04T19:41:32.525Z,36.60
2022-11-04T19:43:34.327Z,36.13
2022-11-04T19:45:38.906Z,39.90
2022-11-04T19:47:40.497Z,40.85
2022-11-04T19:49:42.424Z,44.67
2022-11-04T19:51:44.372Z,36.55
2022-11-04T19:54:05.113Z,36.90
2022-11-04T19:56:07.096Z,42.83
2022-11-04T19:58:08.949Z,39.17
2022-11-04T20:00:12.022Z,34.85
2022-11-04T20:02:15.301Z,38.20
2022-11-04T20:04:17.586Z,42.42
2022-11-04T20:06:20.252Z,35.60
2022-11-04T20:08:21.842Z,40.22
2022-11-04T20:10:23.852Z,40.13
2022-11-04T20:12:44.017Z,39.13
2022-11-04T20:14:45.604Z,40.58
2022-11-04T20:16:47.311Z,40.67
2022-11-04T20:18:51.599Z,42.78
2022-11-04T20:20:53.176Z,39.17
2022-11-04T20:22:54.917Z,37.90
2022-11-04T20:24:56.635Z,34.30
2022-11-04T20:26:58.424Z,34.95
2022-11-04T20:29:00.137Z,38.40
2022-11-04T20:31:01.717Z,39.40
2022-11-04T20:33:03.762Z,38.63
2022-11-04T20:35:05.799Z,38.92
2022-11-04T20:37:07.918Z,40.67
2022-11-04T20:39:18.036Z,33.78
2022-11-04T20:41:19.706Z,37.70
2022-11-04T20:43:21.355Z,40.53
2022-11-04T20:45:23.985Z,37.42
2022-11-04T20:47:25.660Z,37.88
2022-11-04T20:49:27.214Z,39.80
2022-11-04T20:51:31.295Z,36.97
2022-11-04T20:53:32.901Z,40.92
2022-11-04T20:55:36.296Z,38.42
2022-11-04T20:57:37.917Z,38.85
2022-11-04T20:59:39.462Z,38.75
2022-11-04T21:01:43.708Z,38.50
2022-11-04T21:03:45.513Z,40.85
2022-11-04T21:05:47.104Z,37.28
2022-11-04T21:07:48.786Z,34.50
2022-11-04T21:09:51.625Z,42.90
2022-11-04T21:11:53.248Z,33.93
2022-11-04T21:13:55.511Z,36.42
2022-11-04T21:15:58.625Z,37.10
2022-11-04T21:18:00.264Z,38.95
2022-11-04T21:20:01.865Z,37.78
2022-11-04T21:22:03.655Z,39.50
2022-11-04T21:24:06.260Z,35.97
2022-11-04T21:26:14.238Z,34.88
2022-11-04T21:28:16.604Z,35.30
2022-11-04T21:30:18.254Z,39.50
2022-11-04T21:32:19.834Z,38.10
2022-11-04T21:34:21.551Z,38.50
2022-11-04T21:36:23.827Z,35.13
2022-11-04T21:38:25.511Z,36.42
2022-11-04T21:40:28.716Z,33.33
2022-11-04T21:42:30.288Z,35.83
2022-11-04T21:44:31.915Z,34.50
2022-11-04T21:46:34.098Z,36.03
2022-11-04T21:48:36.537Z,40.53
2022-11-04T21:50:38.183Z,37.22
2022-11-04T21:52:39.793Z,35.05
2022-11-04T21:54:41.368Z,38.80
2022-11-04T21:56:42.973Z,40.05
2022-11-04T21:58:45.342Z,36.28
2022-11-04T22:00:53.816Z,32.13
2022-11-04T22:02:55.608Z,33.25
2022-11-04T22:04:57.398Z,30.95
2022-11-04T22:06:59.014Z,37.05
2022-11-04T22:09:00.671Z,34.50
2022-11-04T22:11:10.591Z,39.58
2022-11-04T22:13:12.474Z,33.22
2022-11-04T22:15:14.586Z,35.95
2022-11-04T22:17:16.167Z,34.28
2022-11-04T22:19:17.775Z,39.97
2022-11-04T22:21:20.030Z,36.30
2022-11-04T22:23:21.971Z,37.63
2022-11-04T22:25:23.712Z,40.92
2022-11-04T22:27:25.317Z,45.30
2022-11-04T22:29:26.909Z,46.88
2022-11-04T22:31:37.353Z,48.03
2022-11-04T22:33:39.193Z,44.05
2022-11-04T22:35:40.753Z,37.13
2022-11-04T22:37:42.426Z,39.45
2022-11-04T22:39:44.013Z,39.38
2022-11-04T22:41:46.442Z,47.33
2022-11-04T22:43:48.407Z,39.95
2022-11-04T22:45:50.063Z,38.90
2022-11-04T22:47:52.702Z,45.53
2022-11-04T22:49:54.294Z,41.17
2022-11-04T22:51:55.884Z,41.38
2022-11-04T22:54:02.830Z,42.30
2022-11-04T22:56:10.320Z,38.88
2022-11-04T22:58:11.956Z,40.00
2022-11-04T23:00:14.205Z,40.30
2022-11-04T23:02:15.965Z,40.28
2022-11-04T23:04:17.660Z,36.40
2022-11-04T23:06:21.071Z,46.30
2022-11-04T23:08:23.558Z,37.03
2022-11-04T23:10:43.376Z,34.88
2022-11-04T23:13:03.778Z,35.70
2022-11-04T23:15:24.266Z,37.95
2022-11-04T23:17:44.715Z,35.80
2022-11-04T23:19:46.344Z,32.05
2022-11-04T23:22:06.775Z,37.35
2022-11-04T23:24:26.936Z,34.65
2022-11-04T23:26:28.824Z,36.63
2022-11-04T23:28:48.982Z,40.47
2022-11-04T23:30:51.449Z,38.38
2022-11-04T23:32:55.292Z,37.72
2022-11-04T23:37:17.176Z,32.05
2022-11-04T23:39:18.813Z,36.95
2022-11-04T23:41:49.749Z,32.63
2022-11-04T23:43:51.488Z,33.40
2022-11-04T23:46:11.872Z,35.70
2022-11-04T23:48:32.558Z,34.80
2022-11-04T23:50:53.233Z,33.97
2022-11-04T23:53:13.857Z,33.90
2022-11-04T23:55:41.972Z,34.65
2022-11-04T23:58:01.765Z,34.83
